Terminal Aerodrome Forecast
Issued by NWS Jackson, MS

Home | Current Version | Previous Version | Text Only | Print | Product List | Glossary On
Versions: 1 2 3 4 5 6 7 8 9 10 11 12 13 14
129
FTUS44 KJAN 030536
TAFGWO
TAF
KGWO 030536Z 0306/0406 06003KT P6SM BKN130
     FM031800 07009KT P6SM -RA OVC050
     FM032000 08014G20KT 4SM -RA BR OVC015=

USA.gov is the U.S. government's official web portal to all federal, state and local government web resources and services.